sensor_id;sensor_type;location;lat;lon;timestamp;temperature;humidity
18105;DHT22;9179;50.968;3.134;2024-01-10T00:01:46;-2.90;99.90
18105;DHT22;9179;50.968;3.134;2024-01-10T00:04:13;-2.90;99.90
18105;DHT22;9179;50.968;3.134;2024-01-10T00:06:42;-2.90;99.90
18105;DHT22;9179;50.968;3.134;2024-01-10T00:09:09;-2.90;99.90
18105;DHT22;9179;50.968;3.134;2024-01-10T00:11:38;-2.90;99.90
18105;DHT22;9179;50.968;3.134;2024-01-10T00:14:05;-2.90;99.90
18105;DHT22;9179;50.968;3.134;2024-01-10T00:16:32;-2.90;99.90
18105;DHT22;9179;50.968;3.134;2024-01-10T00:18:59;-2.90;99.90
18105;DHT22;9179;50.968;3.134;2024-01-10T00:21:26;-2.90;99.90
18105;DHT22;9179;50.968;3.134;2024-01-10T00:23:53;-2.90;99.90
18105;DHT22;9179;50.968;3.134;2024-01-10T00:26:21;-2.90;99.90
18105;DHT22;9179;50.968;3.134;2024-01-10T00:28:49;-2.90;99.90
18105;DHT22;9179;50.968;3.134;2024-01-10T00:31:16;-2.90;99.90
18105;DHT22;9179;50.968;3.134;2024-01-10T00:33:43;-2.90;99.90
18105;DHT22;9179;50.968;3.134;2024-01-10T00:36:11;-2.90;99.90
18105;DHT22;9179;50.968;3.134;2024-01-10T00:38:38;-2.90;99.90
18105;DHT22;9179;50.968;3.134;2024-01-10T00:41:05;-2.90;99.90
18105;DHT22;9179;50.968;3.134;2024-01-10T00:43:32;-2.90;99.90
18105;DHT22;9179;50.968;3.134;2024-01-10T00:46:01;-2.90;99.90
18105;DHT22;9179;50.968;3.134;2024-01-10T00:48:28;-2.90;99.90
18105;DHT22;9179;50.968;3.134;2024-01-10T00:50:55;-2.80;99.90
18105;DHT22;9179;50.968;3.134;2024-01-10T00:53:22;-2.90;99.90
18105;DHT22;9179;50.968;3.134;2024-01-10T00:55:49;-2.90;99.90
18105;DHT22;9179;50.968;3.134;2024-01-10T00:58:17;-2.80;99.90
18105;DHT22;9179;50.968;3.134;2024-01-10T01:00:44;-2.90;99.90
18105;DHT22;9179;50.968;3.134;2024-01-10T01:03:12;-2.90;99.90
18105;DHT22;9179;50.968;3.134;2024-01-10T01:05:40;-2.90;99.90
18105;DHT22;9179;50.968;3.134;2024-01-10T01:08:07;-2.90;99.90
18105;DHT22;9179;50.968;3.134;2024-01-10T01:10:34;-2.90;99.90
18105;DHT22;9179;50.968;3.134;2024-01-10T01:13:01;-2.90;99.90
18105;DHT22;9179;50.968;3.134;2024-01-10T01:15:29;-2.90;99.90
18105;DHT22;9179;50.968;3.134;2024-01-10T01:17:56;-2.90;99.90
18105;DHT22;9179;50.968;3.134;2024-01-10T01:20:24;-2.90;99.90
18105;DHT22;9179;50.968;3.134;2024-01-10T01:22:51;-3.00;99.90
18105;DHT22;9179;50.968;3.134;2024-01-10T01:25:19;-3.00;99.90
18105;DHT22;9179;50.968;3.134;2024-01-10T01:27:46;-3.10;99.90
18105;DHT22;9179;50.968;3.134;2024-01-10T01:30:13;-3.10;99.90
18105;DHT22;9179;50.968;3.134;2024-01-10T01:32:40;-3.00;99.90
18105;DHT22;9179;50.968;3.134;2024-01-10T01:35:08;-3.10;99.90
18105;DHT22;9179;50.968;3.134;2024-01-10T01:37:36;-3.20;99.90
18105;DHT22;9179;50.968;3.134;2024-01-10T01:40:04;-3.20;99.90
18105;DHT22;9179;50.968;3.134;2024-01-10T01:42:32;-3.30;99.90
18105;DHT22;9179;50.968;3.134;2024-01-10T01:44:59;-3.30;99.90
18105;DHT22;9179;50.968;3.134;2024-01-10T01:47:26;-3.50;99.90
18105;DHT22;9179;50.968;3.134;2024-01-10T01:49:54;-3.50;99.90
18105;DHT22;9179;50.968;3.134;2024-01-10T01:52:21;-3.50;99.90
18105;DHT22;9179;50.968;3.134;2024-01-10T01:54:49;-3.60;99.90
18105;DHT22;9179;50.968;3.134;2024-01-10T01:57:17;-3.70;99.90
18105;DHT22;9179;50.968;3.134;2024-01-10T01:59:44;-3.70;99.90
18105;DHT22;9179;50.968;3.134;2024-01-10T02:02:11;-3.70;99.90
18105;DHT22;9179;50.968;3.134;2024-01-10T02:04:40;-3.70;99.90
18105;DHT22;9179;50.968;3.134;2024-01-10T02:07:07;-3.70;99.90
18105;DHT22;9179;50.968;3.134;2024-01-10T02:09:34;-3.70;99.90
18105;DHT22;9179;50.968;3.134;2024-01-10T02:12:04;-3.60;99.90
18105;DHT22;9179;50.968;3.134;2024-01-10T02:14:31;-3.70;99.90
18105;DHT22;9179;50.968;3.134;2024-01-10T02:16:58;-3.70;99.90
18105;DHT22;9179;50.968;3.134;2024-01-10T02:19:26;-3.70;99.90
18105;DHT22;9179;50.968;3.134;2024-01-10T02:21:54;-3.60;99.90
18105;DHT22;9179;50.968;3.134;2024-01-10T02:24:22;-3.70;99.90
18105;DHT22;9179;50.968;3.134;2024-01-10T02:26:50;-3.70;99.90
18105;DHT22;9179;50.968;3.134;2024-01-10T02:29:17;-3.80;99.90
18105;DHT22;9179;50.968;3.134;2024-01-10T02:31:44;-3.70;99.90
18105;DHT22;9179;50.968;3.134;2024-01-10T02:34:11;-3.70;99.90
18105;DHT22;9179;50.968;3.134;2024-01-10T02:36:38;-3.80;99.90
18105;DHT22;9179;50.968;3.134;2024-01-10T02:39:05;-3.80;99.90
18105;DHT22;9179;50.968;3.134;2024-01-10T02:41:32;-3.80;99.90
18105;DHT22;9179;50.968;3.134;2024-01-10T02:44:01;-3.70;99.90
18105;DHT22;9179;50.968;3.134;2024-01-10T02:46:27;-3.70;99.90
18105;DHT22;9179;50.968;3.134;2024-01-10T02:48:54;-3.60;99.90
18105;DHT22;9179;50.968;3.134;2024-01-10T02:51:22;-3.70;99.90
18105;DHT22;9179;50.968;3.134;2024-01-10T02:53:49;-3.80;99.90
18105;DHT22;9179;50.968;3.134;2024-01-10T02:56:16;-3.80;99.90
18105;DHT22;9179;50.968;3.134;2024-01-10T02:58:42;-3.80;99.90
18105;DHT22;9179;50.968;3.134;2024-01-10T03:01:11;-3.80;99.90
18105;DHT22;9179;50.968;3.134;2024-01-10T03:03:40;-3.70;99.90
18105;DHT22;9179;50.968;3.134;2024-01-10T03:06:07;-3.80;99.90
18105;DHT22;9179;50.968;3.134;2024-01-10T03:08:34;-3.80;99.90
18105;DHT22;9179;50.968;3.134;2024-01-10T03:11:01;-3.80;99.90
18105;DHT22;9179;50.968;3.134;2024-01-10T03:13:28;-3.80;99.90
18105;DHT22;9179;50.968;3.134;2024-01-10T03:15:55;-3.80;99.90
18105;DHT22;9179;50.968;3.134;2024-01-10T03:18:24;-3.80;99.90
18105;DHT22;9179;50.968;3.134;2024-01-10T03:20:50;-3.90;99.90
18105;DHT22;9179;50.968;3.134;2024-01-10T03:23:17;-3.90;99.90
18105;DHT22;9179;50.968;3.134;2024-01-10T03:25:44;-3.80;99.90
18105;DHT22;9179;50.968;3.134;2024-01-10T03:28:15;-3.90;99.90
18105;DHT22;9179;50.968;3.134;2024-01-10T03:30:43;-3.90;99.90
18105;DHT22;9179;50.968;3.134;2024-01-10T03:33:10;-3.90;99.90
18105;DHT22;9179;50.968;3.134;2024-01-10T03:35:38;-4.00;99.90
18105;DHT22;9179;50.968;3.134;2024-01-10T03:38:05;-3.90;99.90
18105;DHT22;9179;50.968;3.134;2024-01-10T03:40:32;-3.90;99.90
18105;DHT22;9179;50.968;3.134;2024-01-10T03:42:59;-3.90;99.90
18105;DHT22;9179;50.968;3.134;2024-01-10T03:45:26;-4.00;99.90
18105;DHT22;9179;50.968;3.134;2024-01-10T03:47:54;-4.00;99.90
18105;DHT22;9179;50.968;3.134;2024-01-10T03:50:21;-4.10;99.90
18105;DHT22;9179;50.968;3.134;2024-01-10T03:52:49;-4.10;99.90
18105;DHT22;9179;50.968;3.134;2024-01-10T03:55:16;-4.10;99.90
18105;DHT22;9179;50.968;3.134;2024-01-10T03:57:43;-4.00;99.90
18105;DHT22;9179;50.968;3.134;2024-01-10T04:00:11;-4.00;99.90
18105;DHT22;9179;50.968;3.134;2024-01-10T04:02:38;-4.00;99.90
18105;DHT22;9179;50.968;3.134;2024-01-10T04:05:07;-4.00;99.90
18105;DHT22;9179;50.968;3.134;2024-01-10T04:07:35;-4.00;99.90
18105;DHT22;9179;50.968;3.134;2024-01-10T04:10:05;-4.00;99.90
18105;DHT22;9179;50.968;3.134;2024-01-10T04:12:36;-3.90;99.90
18105;DHT22;9179;50.968;3.134;2024-01-10T04:15:03;-3.90;99.90
18105;DHT22;9179;50.968;3.134;2024-01-10T04:17:31;-3.80;99.90
18105;DHT22;9179;50.968;3.134;2024-01-10T04:19:58;-3.80;99.90
18105;DHT22;9179;50.968;3.134;2024-01-10T04:22:25;-3.70;99.90
18105;DHT22;9179;50.968;3.134;2024-01-10T04:24:52;-3.70;99.90
18105;DHT22;9179;50.968;3.134;2024-01-10T04:27:20;-3.50;99.90
18105;DHT22;9179;50.968;3.134;2024-01-10T04:29:47;-3.60;99.90
18105;DHT22;9179;50.968;3.134;2024-01-10T04:32:14;-3.60;99.90
18105;DHT22;9179;50.968;3.134;2024-01-10T04:34:41;-3.60;99.90
18105;DHT22;9179;50.968;3.134;2024-01-10T04:37:08;-3.60;99.90
18105;DHT22;9179;50.968;3.134;2024-01-10T04:39:35;-3.60;99.90
18105;DHT22;9179;50.968;3.134;2024-01-10T04:42:04;-3.70;99.90
18105;DHT22;9179;50.968;3.134;2024-01-10T04:44:32;-3.70;99.90
18105;DHT22;9179;50.968;3.134;2024-01-10T04:46:59;-3.80;99.90
18105;DHT22;9179;50.968;3.134;2024-01-10T04:49:26;-3.70;99.90
18105;DHT22;9179;50.968;3.134;2024-01-10T04:51:53;-3.70;99.90
18105;DHT22;9179;50.968;3.134;2024-01-10T04:54:20;-3.80;99.90
18105;DHT22;9179;50.968;3.134;2024-01-10T04:56:47;-3.80;99.90
18105;DHT22;9179;50.968;3.134;2024-01-10T04:59:14;-3.70;99.90
18105;DHT22;9179;50.968;3.134;2024-01-10T05:01:42;-3.80;99.90
18105;DHT22;9179;50.968;3.134;2024-01-10T05:04:09;-3.70;99.90
18105;DHT22;9179;50.968;3.134;2024-01-10T05:06:36;-3.60;99.90
18105;DHT22;9179;50.968;3.134;2024-01-10T05:09:03;-3.70;99.90
18105;DHT22;9179;50.968;3.134;2024-01-10T05:11:30;-3.70;99.90
18105;DHT22;9179;50.968;3.134;2024-01-10T05:13:57;-3.70;99.90
18105;DHT22;9179;50.968;3.134;2024-01-10T05:16:24;-3.80;99.90
18105;DHT22;9179;50.968;3.134;2024-01-10T05:18:52;-3.80;99.90
18105;DHT22;9179;50.968;3.134;2024-01-10T05:21:19;-3.80;99.90
18105;DHT22;9179;50.968;3.134;2024-01-10T05:23:47;-3.80;99.90
18105;DHT22;9179;50.968;3.134;2024-01-10T05:26:14;-3.80;99.90
18105;DHT22;9179;50.968;3.134;2024-01-10T05:28:41;-3.80;99.90
18105;DHT22;9179;50.968;3.134;2024-01-10T05:31:08;-3.80;99.90
18105;DHT22;9179;50.968;3.134;2024-01-10T05:33:35;-3.80;99.90
18105;DHT22;9179;50.968;3.134;2024-01-10T05:36:04;-3.80;99.90
18105;DHT22;9179;50.968;3.134;2024-01-10T05:38:30;-3.90;99.90
18105;DHT22;9179;50.968;3.134;2024-01-10T05:40:57;-3.90;99.90
18105;DHT22;9179;50.968;3.134;2024-01-10T05:43:25;-3.90;99.90
18105;DHT22;9179;50.968;3.134;2024-01-10T05:45:51;-3.90;99.90
18105;DHT22;9179;50.968;3.134;2024-01-10T05:48:18;-4.00;99.90
18105;DHT22;9179;50.968;3.134;2024-01-10T05:50:45;-3.90;99.90
18105;DHT22;9179;50.968;3.134;2024-01-10T05:53:14;-4.00;99.90
18105;DHT22;9179;50.968;3.134;2024-01-10T05:55:42;-3.90;99.90
18105;DHT22;9179;50.968;3.134;2024-01-10T05:58:09;-3.90;99.90
18105;DHT22;9179;50.968;3.134;2024-01-10T06:00:36;-3.90;99.90
18105;DHT22;9179;50.968;3.134;2024-01-10T06:03:04;-3.90;99.90
18105;DHT22;9179;50.968;3.134;2024-01-10T06:05:31;-3.90;99.90
18105;DHT22;9179;50.968;3.134;2024-01-10T06:07:58;-3.90;99.90
18105;DHT22;9179;50.968;3.134;2024-01-10T06:10:26;-4.00;99.90
18105;DHT22;9179;50.968;3.134;2024-01-10T06:12:54;-4.00;99.90
18105;DHT22;9179;50.968;3.134;2024-01-10T06:15:22;-4.00;99.90
18105;DHT22;9179;50.968;3.134;2024-01-10T06:17:48;-4.10;99.90
18105;DHT22;9179;50.968;3.134;2024-01-10T06:20:16;-4.10;99.90
18105;DHT22;9179;50.968;3.134;2024-01-10T06:22:44;-4.10;99.90
18105;DHT22;9179;50.968;3.134;2024-01-10T06:25:12;-4.00;99.90
18105;DHT22;9179;50.968;3.134;2024-01-10T06:27:40;-4.00;99.90
18105;DHT22;9179;50.968;3.134;2024-01-10T06:30:08;-4.00;99.90
18105;DHT22;9179;50.968;3.134;2024-01-10T06:32:35;-4.00;99.90
18105;DHT22;9179;50.968;3.134;2024-01-10T06:35:02;-4.00;99.90
18105;DHT22;9179;50.968;3.134;2024-01-10T06:37:30;-4.10;99.90
18105;DHT22;9179;50.968;3.134;2024-01-10T06:39:57;-4.10;99.90
18105;DHT22;9179;50.968;3.134;2024-01-10T06:42:24;-4.10;99.90
18105;DHT22;9179;50.968;3.134;2024-01-10T06:44:53;-4.10;99.90
18105;DHT22;9179;50.968;3.134;2024-01-10T06:47:20;-4.10;99.90
18105;DHT22;9179;50.968;3.134;2024-01-10T06:49:47;-4.20;99.90
18105;DHT22;9179;50.968;3.134;2024-01-10T06:52:14;-4.10;99.90
18105;DHT22;9179;50.968;3.134;2024-01-10T06:54:42;-4.20;99.90
18105;DHT22;9179;50.968;3.134;2024-01-10T06:57:09;-4.20;99.90
18105;DHT22;9179;50.968;3.134;2024-01-10T06:59:36;-4.20;99.90
18105;DHT22;9179;50.968;3.134;2024-01-10T07:02:04;-4.20;99.90
18105;DHT22;9179;50.968;3.134;2024-01-10T07:04:31;-4.20;99.90
18105;DHT22;9179;50.968;3.134;2024-01-10T07:06:58;-4.30;99.90
18105;DHT22;9179;50.968;3.134;2024-01-10T07:09:25;-4.30;99.90
18105;DHT22;9179;50.968;3.134;2024-01-10T07:11:52;-4.30;99.90
18105;DHT22;9179;50.968;3.134;2024-01-10T07:14:19;-4.30;99.90
18105;DHT22;9179;50.968;3.134;2024-01-10T07:16:46;-4.30;99.90
18105;DHT22;9179;50.968;3.134;2024-01-10T07:19:14;-4.30;99.90
18105;DHT22;9179;50.968;3.134;2024-01-10T07:21:41;-4.10;99.90
18105;DHT22;9179;50.968;3.134;2024-01-10T07:24:09;-4.20;99.90
18105;DHT22;9179;50.968;3.134;2024-01-10T07:26:37;-4.30;99.90
18105;DHT22;9179;50.968;3.134;2024-01-10T07:29:04;-4.20;99.90
18105;DHT22;9179;50.968;3.134;2024-01-10T07:31:34;-4.20;99.90
18105;DHT22;9179;50.968;3.134;2024-01-10T07:34:00;-4.10;99.90
18105;DHT22;9179;50.968;3.134;2024-01-10T07:36:31;-4.20;99.90
18105;DHT22;9179;50.968;3.134;2024-01-10T07:38:59;-4.10;99.90
18105;DHT22;9179;50.968;3.134;2024-01-10T07:41:26;-4.10;99.90
18105;DHT22;9179;50.968;3.134;2024-01-10T07:43:53;-3.90;99.90
18105;DHT22;9179;50.968;3.134;2024-01-10T07:46:20;-4.00;99.90
18105;DHT22;9179;50.968;3.134;2024-01-10T07:48:48;-4.00;99.90
18105;DHT22;9179;50.968;3.134;2024-01-10T07:51:15;-4.00;99.90
18105;DHT22;9179;50.968;3.134;2024-01-10T07:53:43;-3.90;99.90
18105;DHT22;9179;50.968;3.134;2024-01-10T07:56:10;-3.90;99.90
18105;DHT22;9179;50.968;3.134;2024-01-10T07:58:38;-3.90;99.90
18105;DHT22;9179;50.968;3.134;2024-01-10T08:01:05;-3.90;99.90
18105;DHT22;9179;50.968;3.134;2024-01-10T08:03:32;-3.80;99.90
18105;DHT22;9179;50.968;3.134;2024-01-10T08:05:59;-3.70;99.90
18105;DHT22;9179;50.968;3.134;2024-01-10T08:08:26;-3.80;99.90
18105;DHT22;9179;50.968;3.134;2024-01-10T08:10:56;-3.70;99.90
18105;DHT22;9179;50.968;3.134;2024-01-10T08:13:23;-3.60;99.90
18105;DHT22;9179;50.968;3.134;2024-01-10T08:15:50;-3.60;99.90
18105;DHT22;9179;50.968;3.134;2024-01-10T08:18:17;-3.50;99.90
18105;DHT22;9179;50.968;3.134;2024-01-10T08:20:44;-3.50;99.90
18105;DHT22;9179;50.968;3.134;2024-01-10T08:23:11;-3.50;99.90
18105;DHT22;9179;50.968;3.134;2024-01-10T08:25:39;-3.40;99.90
18105;DHT22;9179;50.968;3.134;2024-01-10T08:28:07;-3.40;99.90
18105;DHT22;9179;50.968;3.134;2024-01-10T08:30:35;-3.30;99.90
18105;DHT22;9179;50.968;3.134;2024-01-10T08:33:03;-3.20;99.90
18105;DHT22;9179;50.968;3.134;2024-01-10T08:35:30;-3.20;99.90
18105;DHT22;9179;50.968;3.134;2024-01-10T08:37:57;-3.10;99.90
18105;DHT22;9179;50.968;3.134;2024-01-10T08:40:24;-2.90;99.90
18105;DHT22;9179;50.968;3.134;2024-01-10T08:42:51;-3.00;99.90
18105;DHT22;9179;50.968;3.134;2024-01-10T08:45:19;-3.00;99.90
18105;DHT22;9179;50.968;3.134;2024-01-10T08:47:46;-2.90;99.90
18105;DHT22;9179;50.968;3.134;2024-01-10T08:50:13;-2.80;99.90
18105;DHT22;9179;50.968;3.134;2024-01-10T08:52:40;-2.80;99.90
18105;DHT22;9179;50.968;3.134;2024-01-10T08:55:08;-2.70;99.90
18105;DHT22;9179;50.968;3.134;2024-01-10T08:57:35;-2.60;99.90
18105;DHT22;9179;50.968;3.134;2024-01-10T09:00:02;-2.40;99.90
18105;DHT22;9179;50.968;3.134;2024-01-10T09:02:33;-2.30;99.90
18105;DHT22;9179;50.968;3.134;2024-01-10T09:05:02;-2.20;99.90
18105;DHT22;9179;50.968;3.134;2024-01-10T09:07:29;-2.00;99.90
18105;DHT22;9179;50.968;3.134;2024-01-10T09:09:57;-2.00;99.90
18105;DHT22;9179;50.968;3.134;2024-01-10T09:12:24;-2.00;99.90
18105;DHT22;9179;50.968;3.134;2024-01-10T09:14:51;-1.80;99.90
18105;DHT22;9179;50.968;3.134;2024-01-10T09:17:18;-1.80;99.90
18105;DHT22;9179;50.968;3.134;2024-01-10T09:19:46;-1.70;99.90
18105;DHT22;9179;50.968;3.134;2024-01-10T09:22:13;-1.70;99.90
18105;DHT22;9179;50.968;3.134;2024-01-10T09:24:40;-1.60;99.90
18105;DHT22;9179;50.968;3.134;2024-01-10T09:27:07;-1.50;99.90
18105;DHT22;9179;50.968;3.134;2024-01-10T09:29:34;-1.50;99.90
18105;DHT22;9179;50.968;3.134;2024-01-10T09:32:02;-1.50;99.90
18105;DHT22;9179;50.968;3.134;2024-01-10T09:34:29;-1.30;99.90
18105;DHT22;9179;50.968;3.134;2024-01-10T09:36:59;-1.30;99.90
18105;DHT22;9179;50.968;3.134;2024-01-10T09:39:27;-1.20;99.90
18105;DHT22;9179;50.968;3.134;2024-01-10T09:41:54;-1.20;99.90
18105;DHT22;9179;50.968;3.134;2024-01-10T09:44:21;-1.20;99.90
18105;DHT22;9179;50.968;3.134;2024-01-10T09:46:51;-1.10;99.90
18105;DHT22;9179;50.968;3.134;2024-01-10T09:49:19;-1.10;99.90
18105;DHT22;9179;50.968;3.134;2024-01-10T09:51:48;-1.10;99.90
18105;DHT22;9179;50.968;3.134;2024-01-10T09:54:17;-1.10;99.90
18105;DHT22;9179;50.968;3.134;2024-01-10T09:56:45;-1.10;99.90
18105;DHT22;9179;50.968;3.134;2024-01-10T09:59:13;-1.10;99.90
18105;DHT22;9179;50.968;3.134;2024-01-10T10:01:40;-1.10;99.90
18105;DHT22;9179;50.968;3.134;2024-01-10T10:04:11;-1.10;99.90
18105;DHT22;9179;50.968;3.134;2024-01-10T10:06:38;-1.10;99.90
18105;DHT22;9179;50.968;3.134;2024-01-10T10:09:07;-1.00;99.90
18105;DHT22;9179;50.968;3.134;2024-01-10T10:11:37;-0.90;99.90
18105;DHT22;9179;50.968;3.134;2024-01-10T10:14:18;-0.90;99.90
18105;DHT22;9179;50.968;3.134;2024-01-10T10:16:45;-0.90;99.90
18105;DHT22;9179;50.968;3.134;2024-01-10T10:19:12;-0.90;99.90
18105;DHT22;9179;50.968;3.134;2024-01-10T10:21:39;-0.90;99.90
18105;DHT22;9179;50.968;3.134;2024-01-10T10:24:07;-0.80;99.90
18105;DHT22;9179;50.968;3.134;2024-01-10T10:26:36;-0.70;99.90
18105;DHT22;9179;50.968;3.134;2024-01-10T10:29:03;-0.70;99.90
18105;DHT22;9179;50.968;3.134;2024-01-10T10:31:31;-0.60;99.90
18105;DHT22;9179;50.968;3.134;2024-01-10T10:34:00;-0.50;99.90
18105;DHT22;9179;50.968;3.134;2024-01-10T10:36:28;-0.40;99.90
18105;DHT22;9179;50.968;3.134;2024-01-10T10:38:59;-0.30;99.90
18105;DHT22;9179;50.968;3.134;2024-01-10T10:41:29;-0.40;99.90
18105;DHT22;9179;50.968;3.134;2024-01-10T10:43:59;-0.30;99.90
18105;DHT22;9179;50.968;3.134;2024-01-10T10:46:27;-0.10;99.90
18105;DHT22;9179;50.968;3.134;2024-01-10T10:48:55;-0.20;99.90
18105;DHT22;9179;50.968;3.134;2024-01-10T10:51:31;-0.40;99.90
18105;DHT22;9179;50.968;3.134;2024-01-10T10:53:59;-0.40;99.90
18105;DHT22;9179;50.968;3.134;2024-01-10T10:56:29;-0.40;99.90
18105;DHT22;9179;50.968;3.134;2024-01-10T10:59:00;-0.30;99.90
18105;DHT22;9179;50.968;3.134;2024-01-10T11:01:28;-0.20;99.90
18105;DHT22;9179;50.968;3.134;2024-01-10T11:03:55;-0.20;99.90
18105;DHT22;9179;50.968;3.134;2024-01-10T11:06:23;0.00;99.90
18105;DHT22;9179;50.968;3.134;2024-01-10T11:08:59;0.10;99.90
18105;DHT22;9179;50.968;3.134;2024-01-10T11:11:37;-0.10;99.90
18105;DHT22;9179;50.968;3.134;2024-01-10T11:14:21;0.00;99.90
18105;DHT22;9179;50.968;3.134;2024-01-10T11:20:05;0.20;99.90
18105;DHT22;9179;50.968;3.134;2024-01-10T11:22:48;0.20;99.90
18105;DHT22;9179;50.968;3.134;2024-01-10T11:25:19;0.40;99.90
18105;DHT22;9179;50.968;3.134;2024-01-10T11:27:46;0.40;99.90
18105;DHT22;9179;50.968;3.134;2024-01-10T11:30:30;0.40;99.90
18105;DHT22;9179;50.968;3.134;2024-01-10T11:33:01;0.50;99.90
18105;DHT22;9179;50.968;3.134;2024-01-10T11:35:28;0.50;99.90
18105;DHT22;9179;50.968;3.134;2024-01-10T11:37:59;0.70;99.90
18105;DHT22;9179;50.968;3.134;2024-01-10T11:40:47;0.60;99.90
18105;DHT22;9179;50.968;3.134;2024-01-10T11:43:14;0.60;99.90
18105;DHT22;9179;50.968;3.134;2024-01-10T11:45:52;0.70;99.90
18105;DHT22;9179;50.968;3.134;2024-01-10T11:48:26;0.70;99.90
18105;DHT22;9179;50.968;3.134;2024-01-10T11:50:54;0.80;99.90
18105;DHT22;9179;50.968;3.134;2024-01-10T11:53:40;0.90;99.90
18105;DHT22;9179;50.968;3.134;2024-01-10T11:56:12;1.00;99.90
18105;DHT22;9179;50.968;3.134;2024-01-10T11:58:53;1.10;99.90
18105;DHT22;9179;50.968;3.134;2024-01-10T12:01:22;1.30;99.90
18105;DHT22;9179;50.968;3.134;2024-01-10T12:03:52;1.20;99.90
18105;DHT22;9179;50.968;3.134;2024-01-10T12:06:21;1.20;99.90
18105;DHT22;9179;50.968;3.134;2024-01-10T12:08:48;1.20;99.90
18105;DHT22;9179;50.968;3.134;2024-01-10T12:11:16;1.20;99.90
18105;DHT22;9179;50.968;3.134;2024-01-10T12:13:44;1.10;99.90
18105;DHT22;9179;50.968;3.134;2024-01-10T12:16:12;1.00;99.90
18105;DHT22;9179;50.968;3.134;2024-01-10T12:18:41;1.00;99.90
18105;DHT22;9179;50.968;3.134;2024-01-10T12:21:08;1.10;99.90
18105;DHT22;9179;50.968;3.134;2024-01-10T12:23:36;1.20;99.90
18105;DHT22;9179;50.968;3.134;2024-01-10T12:26:05;1.10;99.90
18105;DHT22;9179;50.968;3.134;2024-01-10T12:28:33;1.20;99.90
18105;DHT22;9179;50.968;3.134;2024-01-10T12:31:01;1.30;99.90
18105;DHT22;9179;50.968;3.134;2024-01-10T12:33:28;1.30;99.90
18105;DHT22;9179;50.968;3.134;2024-01-10T12:36:07;1.30;99.90
18105;DHT22;9179;50.968;3.134;2024-01-10T12:38:35;1.20;99.90
18105;DHT22;9179;50.968;3.134;2024-01-10T12:41:02;1.20;99.90
18105;DHT22;9179;50.968;3.134;2024-01-10T12:43:30;1.30;99.90
18105;DHT22;9179;50.968;3.134;2024-01-10T12:46:04;1.40;99.90
18105;DHT22;9179;50.968;3.134;2024-01-10T12:48:31;1.50;99.90
18105;DHT22;9179;50.968;3.134;2024-01-10T12:51:02;1.60;99.90
18105;DHT22;9179;50.968;3.134;2024-01-10T12:53:35;1.70;99.90
18105;DHT22;9179;50.968;3.134;2024-01-10T12:56:03;1.70;99.90
18105;DHT22;9179;50.968;3.134;2024-01-10T12:58:30;1.50;99.90
18105;DHT22;9179;50.968;3.134;2024-01-10T13:00:57;1.50;99.90
18105;DHT22;9179;50.968;3.134;2024-01-10T13:03:24;1.50;99.90
18105;DHT22;9179;50.968;3.134;2024-01-10T13:05:51;1.50;99.90
18105;DHT22;9179;50.968;3.134;2024-01-10T13:08:18;1.60;99.90
18105;DHT22;9179;50.968;3.134;2024-01-10T13:10:47;1.60;99.90
18105;DHT22;9179;50.968;3.134;2024-01-10T13:13:14;1.70;99.90
18105;DHT22;9179;50.968;3.134;2024-01-10T13:15:43;1.70;99.90
18105;DHT22;9179;50.968;3.134;2024-01-10T13:18:11;1.70;99.90
18105;DHT22;9179;50.968;3.134;2024-01-10T13:20:38;1.60;99.90
18105;DHT22;9179;50.968;3.134;2024-01-10T13:23:05;1.70;99.90
18105;DHT22;9179;50.968;3.134;2024-01-10T13:25:33;1.60;99.90
18105;DHT22;9179;50.968;3.134;2024-01-10T13:28:02;1.50;99.90
18105;DHT22;9179;50.968;3.134;2024-01-10T13:30:30;1.50;99.90
18105;DHT22;9179;50.968;3.134;2024-01-10T13:32:57;1.70;99.90
18105;DHT22;9179;50.968;3.134;2024-01-10T13:35:24;1.60;99.90
18105;DHT22;9179;50.968;3.134;2024-01-10T13:37:51;1.70;99.90
18105;DHT22;9179;50.968;3.134;2024-01-10T13:40:18;1.70;99.90
18105;DHT22;9179;50.968;3.134;2024-01-10T13:42:49;1.60;99.90
18105;DHT22;9179;50.968;3.134;2024-01-10T13:45:18;1.40;99.90
18105;DHT22;9179;50.968;3.134;2024-01-10T13:47:46;1.40;99.90
18105;DHT22;9179;50.968;3.134;2024-01-10T13:50:14;1.40;99.90
18105;DHT22;9179;50.968;3.134;2024-01-10T13:52:41;1.50;99.90
18105;DHT22;9179;50.968;3.134;2024-01-10T13:55:09;1.70;99.90
18105;DHT22;9179;50.968;3.134;2024-01-10T13:57:36;1.80;99.90
18105;DHT22;9179;50.968;3.134;2024-01-10T14:00:05;1.90;99.90
18105;DHT22;9179;50.968;3.134;2024-01-10T14:02:35;1.80;99.90
18105;DHT22;9179;50.968;3.134;2024-01-10T14:05:02;1.70;99.90
18105;DHT22;9179;50.968;3.134;2024-01-10T14:07:31;1.60;99.90
18105;DHT22;9179;50.968;3.134;2024-01-10T14:09:59;1.70;99.90
18105;DHT22;9179;50.968;3.134;2024-01-10T14:12:27;1.80;99.90
18105;DHT22;9179;50.968;3.134;2024-01-10T14:14:55;2.00;99.90
18105;DHT22;9179;50.968;3.134;2024-01-10T14:17:22;2.10;99.90
18105;DHT22;9179;50.968;3.134;2024-01-10T14:19:51;2.40;99.90
18105;DHT22;9179;50.968;3.134;2024-01-10T14:22:18;3.40;99.90
18105;DHT22;9179;50.968;3.134;2024-01-10T14:24:45;4.10;99.90
18105;DHT22;9179;50.968;3.134;2024-01-10T14:27:12;4.60;99.90
18105;DHT22;9179;50.968;3.134;2024-01-10T14:29:39;4.80;99.90
18105;DHT22;9179;50.968;3.134;2024-01-10T14:32:06;5.00;99.90
18105;DHT22;9179;50.968;3.134;2024-01-10T14:34:33;5.00;99.90
18105;DHT22;9179;50.968;3.134;2024-01-10T14:37:01;4.90;99.90
18105;DHT22;9179;50.968;3.134;2024-01-10T14:39:28;4.80;99.90
18105;DHT22;9179;50.968;3.134;2024-01-10T14:41:56;4.10;99.90
18105;DHT22;9179;50.968;3.134;2024-01-10T14:44:23;3.50;99.90
18105;DHT22;9179;50.968;3.134;2024-01-10T14:46:50;3.20;99.90
18105;DHT22;9179;50.968;3.134;2024-01-10T14:49:17;3.70;99.90
18105;DHT22;9179;50.968;3.134;2024-01-10T14:51:44;4.20;99.90
18105;DHT22;9179;50.968;3.134;2024-01-10T14:54:14;4.40;99.90
18105;DHT22;9179;50.968;3.134;2024-01-10T14:56:40;4.40;99.90
18105;DHT22;9179;50.968;3.134;2024-01-10T14:59:10;4.30;99.90
18105;DHT22;9179;50.968;3.134;2024-01-10T15:01:37;4.20;99.90
18105;DHT22;9179;50.968;3.134;2024-01-10T15:04:04;4.30;99.90
18105;DHT22;9179;50.968;3.134;2024-01-10T15:06:31;4.20;99.90
18105;DHT22;9179;50.968;3.134;2024-01-10T15:08:57;4.10;99.90
18105;DHT22;9179;50.968;3.134;2024-01-10T15:11:26;3.60;99.90
18105;DHT22;9179;50.968;3.134;2024-01-10T15:13:53;2.90;99.90
18105;DHT22;9179;50.968;3.134;2024-01-10T15:16:20;2.30;99.90
18105;DHT22;9179;50.968;3.134;2024-01-10T15:18:47;2.10;99.90
18105;DHT22;9179;50.968;3.134;2024-01-10T15:21:14;1.80;99.90
18105;DHT22;9179;50.968;3.134;2024-01-10T15:23:41;1.60;99.90
18105;DHT22;9179;50.968;3.134;2024-01-10T15:26:08;1.60;99.90
18105;DHT22;9179;50.968;3.134;2024-01-10T15:28:36;1.50;99.90
18105;DHT22;9179;50.968;3.134;2024-01-10T15:31:04;1.40;99.90
18105;DHT22;9179;50.968;3.134;2024-01-10T15:33:30;1.30;99.90
18105;DHT22;9179;50.968;3.134;2024-01-10T15:35:57;1.20;99.90
18105;DHT22;9179;50.968;3.134;2024-01-10T15:38:24;1.10;99.90
18105;DHT22;9179;50.968;3.134;2024-01-10T15:40:51;1.10;99.90
18105;DHT22;9179;50.968;3.134;2024-01-10T15:43:19;1.00;99.90
18105;DHT22;9179;50.968;3.134;2024-01-10T15:45:47;1.00;99.90
18105;DHT22;9179;50.968;3.134;2024-01-10T15:48:14;0.90;99.90
18105;DHT22;9179;50.968;3.134;2024-01-10T15:50:41;0.80;99.90
18105;DHT22;9179;50.968;3.134;2024-01-10T15:53:08;0.80;99.90
18105;DHT22;9179;50.968;3.134;2024-01-10T15:55:35;0.80;99.90
18105;DHT22;9179;50.968;3.134;2024-01-10T15:58:04;0.70;99.90